Time;durP1;ratioP1;P1;durP2;ratioP2;P2;SDS_P1;SDS_P2;PMS_P1;PMS_P2;Temp;Humidity;BMP_temperature;BMP_pressure;BME280_temperature;BME280_humidity;BME280_pressure;Samples;Min_cycle;Max_cycle;Signal;HPM_P1;HPM_P2
2022/01/07 00:01:17;;;;;;;13.38;7.03;;;;;;;1.79;83.40;101306.84;4970980;28;20038;-92
2022/01/07 00:03:43;;;;;;;13.48;7.32;;;;;;;1.83;83.24;101317.31;4973624;28;20031;-91
2022/01/07 00:06:08;;;;;;;13.73;5.75;;;;;;;1.82;83.05;101310.31;4966217;28;20125;-92
2022/01/07 00:08:34;;;;;;;12.98;6.10;;;;;;;1.90;82.30;101305.88;4995219;28;20050;-92
2022/01/07 00:10:59;;;;;;;13.05;6.95;;;;;;;1.94;81.86;101310.22;4995846;28;20031;-91
2022/01/07 00:13:25;;;;;;;12.75;6.65;;;;;;;1.93;82.17;101305.88;4969435;28;20031;-92
2022/01/07 00:15:52;;;;;;;12.27;6.30;;;;;;;1.90;82.49;101298.00;4989586;28;20460;-93
2022/01/07 00:18:17;;;;;;;15.02;6.00;;;;;;;1.86;82.74;101293.66;4973080;28;20030;-91
2022/01/07 00:20:43;;;;;;;17.52;6.47;;;;;;;1.89;82.17;101295.41;4969859;28;20026;-93
2022/01/07 00:23:08;;;;;;;13.43;6.57;;;;;;;1.86;83.18;101298.06;4991579;28;20037;-93
2022/01/07 00:25:34;;;;;;;12.05;6.22;;;;;;;1.80;82.82;101283.22;4975570;28;20113;-92
2022/01/07 00:27:59;;;;;;;14.35;6.38;;;;;;;1.79;83.90;101297.22;4985239;28;20486;-93
2022/01/07 00:30:24;;;;;;;19.33;7.65;;;;;;;1.77;83.89;101292.88;4970855;28;20026;-92
2022/01/07 00:32:50;;;;;;;14.32;6.82;;;;;;;1.69;84.27;101279.81;4972347;28;20026;-92
2022/01/07 00:35:17;;;;;;;16.98;7.05;;;;;;;1.62;85.19;101272.84;4980555;28;20392;-93
2022/01/07 00:37:43;;;;;;;14.32;8.05;;;;;;;1.49;86.01;101259.81;4977049;28;20027;-94
2022/01/07 00:40:12;;;;;;;17.38;6.93;;;;;;;1.48;86.19;101265.97;4972551;28;20377;-93
2022/01/07 00:42:37;;;;;;;16.05;6.53;;;;;;;1.45;87.00;101259.84;4970960;28;20103;-91
2022/01/07 00:45:04;;;;;;;11.35;6.05;;;;;;;1.39;87.22;101260.78;4971151;28;20034;-92
2022/01/07 00:47:30;;;;;;;10.73;6.47;;;;;;;1.37;87.60;101252.03;4970880;28;20038;-95
2022/01/07 00:49:55;;;;;;;12.02;5.68;;;;;;;1.37;87.55;101238.91;5000358;28;20034;-90
2022/01/07 00:52:20;;;;;;;11.10;6.72;;;;;;;1.33;87.95;101239.81;4971432;28;20326;-93
2022/01/07 00:54:45;;;;;;;12.23;6.63;;;;;;;1.30;88.48;101239.88;4969983;28;20027;-92
2022/01/07 00:57:11;;;;;;;11.77;5.93;;;;;;;1.28;88.01;101235.50;4988825;28;20117;-92
2022/01/07 00:59:36;;;;;;;11.57;6.22;;;;;;;1.30;87.74;101231.13;4990271;28;20093;-93
2022/01/07 01:02:01;;;;;;;15.00;6.25;;;;;;;1.30;88.11;101231.13;4990977;28;20093;-94
2022/01/07 01:04:27;;;;;;;10.15;5.43;;;;;;;1.29;87.36;101209.25;5000208;28;20062;-92
2022/01/07 01:06:52;;;;;;;11.93;6.43;;;;;;;1.27;87.75;101208.41;4994761;28;20027;-92
2022/01/07 01:09:17;;;;;;;12.77;6.63;;;;;;;1.30;87.82;101213.63;4994499;28;20092;-93
2022/01/07 01:11:43;;;;;;;14.30;5.70;;;;;;;1.30;88.33;101212.78;4991585;28;20030;-94
2022/01/07 01:14:08;;;;;;;14.70;6.25;;;;;;;1.26;88.39;101203.19;4977241;28;20382;-95
2022/01/07 01:16:35;;;;;;;9.95;6.45;;;;;;;1.29;88.97;101193.53;4954580;28;20038;-91
2022/01/07 01:19:00;;;;;;;13.75;6.07;;;;;;;1.27;88.02;101189.19;4970845;28;20090;-92
2022/01/07 01:21:26;;;;;;;11.90;5.60;;;;;;;1.33;87.99;101187.38;4972684;28;20026;-91
2022/01/07 01:23:51;;;;;;;14.57;5.68;;;;;;;1.31;87.96;101183.91;4981179;28;20055;-92
2022/01/07 01:26:20;;;;;;;12.02;6.32;;;;;;;1.25;88.15;101168.19;4995082;28;20072;-92
2022/01/07 01:28:46;;;;;;;10.55;5.57;;;;;;;1.32;87.68;101167.28;4993279;28;20387;-92
2022/01/07 01:31:14;;;;;;;12.85;6.25;;;;;;;1.39;87.92;101181.22;4988687;28;20027;-92
2022/01/07 01:33:39;;;;;;;9.73;5.35;;;;;;;1.41;87.84;101172.44;4977047;28;20035;-91
2022/01/07 01:36:05;;;;;;;9.27;5.40;;;;;;;1.44;87.34;101177.69;4978934;28;20036;-92
2022/01/07 01:38:31;;;;;;;12.23;5.20;;;;;;;1.45;87.68;101165.44;4992380;28;20035;-92
2022/01/07 01:40:56;;;;;;;14.20;5.78;;;;;;;1.47;86.58;101156.69;4991888;28;20015;-92
2022/01/07 01:43:22;;;;;;;11.32;5.28;;;;;;;1.53;86.33;101163.63;4993195;28;20460;-91
2022/01/07 01:45:47;;;;;;;8.65;5.00;;;;;;;1.55;85.75;101166.22;4990355;28;20018;-91
2022/01/07 01:48:12;;;;;;;11.70;4.80;;;;;;;1.56;86.16;101141.75;4974919;28;20057;-92
2022/01/07 01:50:38;;;;;;;9.95;4.72;;;;;;;1.61;84.66;101135.56;4990912;28;20035;-91
2022/01/07 01:53:03;;;;;;;15.88;5.55;;;;;;;1.61;85.64;101151.28;4973231;28;20377;-92
2022/01/07 01:55:28;;;;;;;11.93;4.68;;;;;;;1.61;85.79;101151.28;4980461;28;20435;-91
2022/01/07 01:57:55;;;;;;;11.32;5.07;;;;;;;1.53;85.57;101120.78;4992429;28;20030;-92
2022/01/07 02:00:23;;;;;;;8.63;4.75;;;;;;;1.65;85.23;101125.91;4987529;28;20038;-92
2022/01/07 02:02:49;;;;;;;8.75;4.75;;;;;;;1.64;84.80;101125.03;4992894;28;20030;-93
2022/01/07 02:05:15;;;;;;;10.05;4.78;;;;;;;1.67;84.63;101113.63;4973027;28;20042;-93
2022/01/07 02:07:41;;;;;;;8.93;4.57;;;;;;;1.68;85.06;101104.91;4973065;28;20088;-93
2022/01/07 02:10:10;;;;;;;9.95;4.97;;;;;;;1.73;84.05;101109.19;4973846;28;20039;-93
2022/01/07 02:12:35;;;;;;;8.07;4.60;;;;;;;1.83;83.75;101112.59;4981953;28;20029;-91
2022/01/07 02:15:01;;;;;;;9.73;4.32;;;;;;;1.85;84.05;101123.09;4987886;28;20031;-93
2022/01/07 02:17:27;;;;;;;7.75;4.22;;;;;;;1.83;84.03;101102.09;4984931;28;20119;-94
2022/01/07 02:19:53;;;;;;;5.78;3.60;;;;;;;1.85;84.27;101107.34;4955667;28;20392;-91
2022/01/07 02:22:19;;;;;;;11.50;4.95;;;;;;;1.85;84.37;101107.34;4954753;28;20365;-93
2022/01/07 02:24:48;;;;;;;12.35;4.70;;;;;;;1.86;84.49;101109.06;4973895;28;20039;-92
2022/01/07 02:27:15;;;;;;;6.95;4.22;;;;;;;1.86;83.99;101081.06;4991914;28;20070;-92
2022/01/07 02:29:43;;;;;;;9.57;4.15;;;;;;;1.91;84.37;101105.50;4991948;28;20094;-92
2022/01/07 02:32:08;;;;;;;8.68;4.15;;;;;;;1.93;83.91;101089.75;4991416;28;20037;-92
2022/01/07 02:34:33;;;;;;;20.80;4.50;;;;;;;1.83;84.83;101081.09;4990004;28;20042;-93
2022/01/07 02:36:59;;;;;;;7.45;3.85;;;;;;;1.86;85.10;101077.56;4990815;28;20117;-92
2022/01/07 02:39:24;;;;;;;8.00;4.32;;;;;;;1.87;85.76;101071.44;4985583;28;20468;-94
2022/01/07 02:41:49;;;;;;;10.07;5.13;;;;;;;1.83;86.04;101083.72;4972998;28;20026;-93
2022/01/07 02:44:14;;;;;;;7.18;3.97;;;;;;;1.78;86.63;101093.41;4954813;28;20134;-92
2022/01/07 02:46:41;;;;;;;11.35;4.47;;;;;;;1.72;87.05;101091.72;4972782;28;20031;-92
2022/01/07 02:49:17;;;;;;;7.45;3.83;;;;;;;1.62;87.22;101063.81;4971168;28;20050;-93
2022/01/07 02:51:44;;;;;;;9.13;4.15;;;;;;;1.67;87.33;101076.88;4972137;28;20069;-92
2022/01/07 02:54:10;;;;;;;9.02;4.95;;;;;;;1.65;87.64;101081.31;4972494;28;20481;-93
2022/01/07 02:56:37;;;;;;;9.80;3.83;;;;;;;1.58;88.13;101071.75;4989732;28;20030;-92
2022/01/07 02:59:04;;;;;;;7.40;4.00;;;;;;;1.51;88.76;101070.09;4982052;28;20058;-91
2022/01/07 03:01:29;;;;;;;9.20;5.20;;;;;;;1.56;88.95;101081.41;4988582;28;20037;-91
2022/01/07 03:03:55;;;;;;;8.93;4.20;;;;;;;1.52;89.83;101077.06;4975203;28;20552;-93
2022/01/07 03:06:21;;;;;;;8.63;4.45;;;;;;;1.51;90.32;101060.47;4989510;28;20215;-94
2022/01/07 03:08:48;;;;;;;11.90;5.05;;;;;;;1.33;91.42;101064.13;5010706;28;20380;-93
2022/01/07 03:11:13;;;;;;;11.30;5.15;;;;;;;1.31;92.53;101065.03;4982785;28;20141;-94
2022/01/07 03:13:39;;;;;;;8.25;5.03;;;;;;;1.10;93.96;101045.13;4985791;28;20038;-92
2022/01/07 03:16:04;;;;;;;10.82;4.97;;;;;;;1.01;95.07;101063.56;4989602;28;20034;-95
2022/01/07 03:18:30;;;;;;;10.93;5.25;;;;;;;0.95;95.40;101064.44;4993898;28;20026;-94
2022/01/07 03:20:57;;;;;;;13.20;5.50;;;;;;;0.91;96.70;101052.25;4991953;28;20282;-94
2022/01/07 03:23:23;;;;;;;11.10;5.22;;;;;;;0.86;96.90;101043.56;4993148;28;20507;-93
2022/01/07 03:25:48;;;;;;;11.07;5.22;;;;;;;0.80;97.13;101044.50;4981783;28;20038;-94
2022/01/07 03:28:14;;;;;;;11.98;5.53;;;;;;;0.81;97.54;101033.13;4985075;28;20045;-92
2022/01/07 03:30:39;;;;;;;10.30;4.97;;;;;;;0.82;97.60;101027.00;4980223;28;20033;-94
2022/01/07 03:33:05;;;;;;;8.10;5.20;;;;;;;0.78;98.63;101030.50;4991097;28;20058;-91
2022/01/07 03:35:31;;;;;;;9.10;5.47;;;;;;;0.72;99.01;101017.47;4981655;28;20436;-94
2022/01/07 03:37:56;;;;;;;12.07;5.78;;;;;;;0.83;99.17;101030.47;4976778;28;20093;-93
2022/01/07 03:40:22;;;;;;;16.05;5.40;;;;;;;0.84;99.13;101038.34;4972447;28;20025;-95
2022/01/07 03:42:48;;;;;;;14.10;6.55;;;;;;;0.85;99.71;101033.97;4971797;28;20031;-94
2022/01/07 03:45:14;;;;;;;7.18;5.07;;;;;;;0.87;99.56;101034.81;4986186;28;20034;-96
2022/01/07 03:47:41;;;;;;;12.05;6.40;;;;;;;0.85;100.00;101026.09;4973126;28;20043;-95
2022/01/07 03:50:09;;;;;;;13.07;6.18;;;;;;;0.81;100.00;101008.69;4989638;28;20035;-95
2022/01/07 03:52:35;;;;;;;14.45;5.57;;;;;;;0.81;100.00;101014.78;4988413;28;20038;-94
2022/01/07 03:55:01;;;;;;;8.70;5.38;;;;;;;0.82;100.00;101010.41;4973631;28;20039;-92
2022/01/07 03:57:26;;;;;;;9.52;5.70;;;;;;;0.88;100.00;101010.34;4990293;28;20027;-92
2022/01/07 03:59:51;;;;;;;8.15;5.45;;;;;;;0.90;100.00;101003.34;4992596;28;20392;-94
2022/01/07 04:02:18;;;;;;;15.73;7.22;;;;;;;0.92;100.00;101007.72;4992061;28;20182;-94
2022/01/07 04:04:43;;;;;;;11.23;5.97;;;;;;;0.85;100.00;100998.16;4995076;28;20034;-95
2022/01/07 04:07:09;;;;;;;12.65;5.95;;;;;;;0.90;100.00;101001.59;4991014;28;20049;-92
2022/01/07 04:09:34;;;;;;;11.93;5.80;;;;;;;0.87;100.00;100992.88;4991716;28;20145;-95
2022/01/07 04:12:00;;;;;;;11.77;5.95;;;;;;;0.89;100.00;101002.47;4980801;28;20027;-94
2022/01/07 04:14:25;;;;;;;12.40;5.85;;;;;;;0.86;100.00;100989.41;4980971;28;20023;-94
2022/01/07 04:16:51;;;;;;;9.07;6.03;;;;;;;0.92;100.00;100997.22;4980027;28;20492;-96
2022/01/07 04:19:17;;;;;;;8.18;5.63;;;;;;;0.87;100.00;100983.25;4964314;28;20086;-93
2022/01/07 04:21:42;;;;;;;6.97;5.72;;;;;;;0.92;100.00;100984.13;4972335;28;20023;-94
2022/01/07 04:24:07;;;;;;;11.80;6.32;;;;;;;0.89;100.00;100986.75;4954021;28;20030;-93
2022/01/07 04:26:32;;;;;;;10.18;6.50;;;;;;;0.92;100.00;100985.84;4975417;28;20104;-93
2022/01/07 04:28:58;;;;;;;10.05;6.95;;;;;;;0.92;100.00;100983.22;4991131;28;20132;-93
2022/01/07 04:31:24;;;;;;;10.82;6.75;;;;;;;0.85;100.00;100982.44;4989923;28;20475;-93
2022/01/07 04:33:50;;;;;;;9.60;6.30;;;;;;;0.89;100.00;100981.53;4990281;28;20100;-93
2022/01/07 04:36:15;;;;;;;12.48;6.70;;;;;;;0.97;100.00;100984.06;4973223;28;20124;-91
2022/01/07 04:38:40;;;;;;;11.70;7.25;;;;;;;0.93;100.00;100985.84;4991002;28;20044;-94
2022/01/07 04:41:06;;;;;;;12.25;7.13;;;;;;;0.97;100.00;100998.03;4987355;28;20764;-93
2022/01/07 04:43:31;;;;;;;12.85;7.70;;;;;;;0.91;100.00;100979.72;4970697;28;20033;-92
2022/01/07 04:45:56;;;;;;;18.38;8.00;;;;;;;1.01;100.00;100990.16;4975102;28;20089;-94
2022/01/07 04:48:21;;;;;;;10.60;7.20;;;;;;;0.96;100.00;100990.16;4989767;28;20065;-94
2022/01/07 04:50:47;;;;;;;14.00;7.80;;;;;;;1.03;100.00;101001.47;4989884;28;20026;-93
2022/01/07 04:53:12;;;;;;;11.13;7.90;;;;;;;1.04;100.00;100990.97;4974246;28;20031;-92
2022/01/07 04:55:38;;;;;;;17.98;9.35;;;;;;;1.07;100.00;100987.47;4977293;28;20479;-94
2022/01/07 04:58:08;;;;;;;15.48;8.38;;;;;;;1.07;100.00;100985.72;4996432;28;20499;-93
2022/01/07 05:00:35;;;;;;;12.18;8.63;;;;;;;1.07;100.00;100987.47;4972283;28;20047;-93
2022/01/07 05:03:00;;;;;;;15.73;9.27;;;;;;;1.06;100.00;100980.50;4952950;28;20027;-92
2022/01/07 05:05:25;;;;;;;15.55;9.73;;;;;;;1.08;100.00;100989.19;4972218;28;20482;-92
2022/01/07 05:07:51;;;;;;;13.88;9.50;;;;;;;1.12;100.00;100988.28;4970533;28;20058;-93
2022/01/07 05:10:16;;;;;;;15.32;8.85;;;;;;;1.12;100.00;100975.19;4970421;28;20027;-93
2022/01/07 05:12:42;;;;;;;12.57;9.32;;;;;;;1.17;100.00;100987.38;4977132;28;20030;-95
2022/01/07 05:15:09;;;;;;;13.40;9.57;;;;;;;1.20;100.00;100971.59;4973249;28;20032;-92
2022/01/07 05:17:35;;;;;;;14.55;9.50;;;;;;;1.22;100.00;100975.09;4975226;28;20154;-93
2022/01/07 05:20:00;;;;;;;15.93;9.85;;;;;;;1.19;100.00;100975.09;4974993;28;20507;-93
2022/01/07 05:22:26;;;;;;;14.20;10.00;;;;;;;1.18;100.00;100962.03;4975180;28;20387;-93
2022/01/07 05:24:51;;;;;;;17.92;10.27;;;;;;;1.11;100.00;100948.09;4982772;28;20034;-91
2022/01/07 05:27:16;;;;;;;13.77;9.75;;;;;;;1.20;100.00;100960.25;4997169;28;20034;-93
2022/01/07 05:29:42;;;;;;;17.95;10.27;;;;;;;1.29;100.00;100972.38;4973890;28;20034;-92
2022/01/07 05:32:07;;;;;;;13.82;9.65;;;;;;;1.22;100.00;100964.59;4956187;28;20405;-92
2022/01/07 05:34:33;;;;;;;15.30;10.23;;;;;;;1.29;100.00;100970.63;4974638;28;20031;-91
2022/01/07 05:36:58;;;;;;;17.02;9.55;;;;;;;1.32;100.00;100970.59;4986692;28;20030;-92
2022/01/07 05:39:24;;;;;;;13.50;9.60;;;;;;;1.32;100.00;100956.63;4992179;28;20081;-91
2022/01/07 05:41:50;;;;;;;18.48;10.50;;;;;;;1.29;100.00;100951.41;4975397;28;20031;-91
2022/01/07 05:44:16;;;;;;;16.10;10.10;;;;;;;1.34;100.00;100968.84;4974622;28;20023;-93
2022/01/07 05:46:42;;;;;;;17.45;10.30;;;;;;;1.33;100.00;100959.22;4975077;28;20096;-93
2022/01/07 05:49:07;;;;;;;17.48;10.48;;;;;;;1.35;100.00;100956.59;4973541;28;20405;-93
2022/01/07 05:51:32;;;;;;;14.10;10.50;;;;;;;1.36;100.00;100955.69;4974022;28;20042;-93
2022/01/07 05:53:58;;;;;;;16.67;11.95;;;;;;;1.34;100.00;100960.06;4974928;28;20030;-94
2022/01/07 05:56:23;;;;;;;15.43;10.75;;;;;;;1.35;100.00;100949.59;4988830;28;20117;-92
2022/01/07 05:58:48;;;;;;;15.73;10.55;;;;;;;1.37;100.00;100958.28;4992612;28;20036;-94
2022/01/07 06:01:14;;;;;;;18.08;11.05;;;;;;;1.41;100.00;100954.75;4989669;28;20122;-90
2022/01/07 06:03:40;;;;;;;16.85;11.15;;;;;;;1.44;100.00;100953.88;4992701;28;20037;-91
2022/01/07 06:06:05;;;;;;;14.93;11.18;;;;;;;1.43;100.00;100944.25;4964572;28;20461;-91
2022/01/07 06:08:30;;;;;;;18.48;11.93;;;;;;;1.39;100.00;100943.44;4974638;28;20046;-91
2022/01/07 06:10:56;;;;;;;19.58;11.80;;;;;;;1.43;100.00;100942.50;4973830;28;20102;-91
2022/01/07 06:13:21;;;;;;;15.70;11.45;;;;;;;1.42;100.00;100943.41;4979269;28;20087;-89
2022/01/07 06:15:46;;;;;;;16.83;11.07;;;;;;;1.46;100.00;100946.81;4986899;28;20033;-91
2022/01/07 06:18:12;;;;;;;14.98;10.75;;;;;;;1.48;100.00;100947.69;4994309;28;20125;-91
2022/01/07 06:20:37;;;;;;;18.42;11.38;;;;;;;1.46;100.00;100938.97;4992295;28;20069;-90
2022/01/07 06:23:02;;;;;;;16.17;11.38;;;;;;;1.49;100.00;100944.19;4988908;28;20034;-91
2022/01/07 06:25:28;;;;;;;14.32;11.18;;;;;;;1.51;100.00;100945.03;4987098;28;20041;-90
2022/01/07 06:27:53;;;;;;;19.02;11.18;;;;;;;1.51;100.00;100949.44;4954872;28;20183;-90
2022/01/07 06:30:19;;;;;;;16.27;11.00;;;;;;;1.54;100.00;100949.38;4972340;28;20031;-91
2022/01/07 06:32:44;;;;;;;17.65;11.30;;;;;;;1.58;100.00;100946.69;4972690;28;20026;-91
2022/01/07 06:35:10;;;;;;;17.15;11.48;;;;;;;1.57;100.00;100952.81;4984948;28;20031;-90
2022/01/07 06:37:36;;;;;;;13.40;10.60;;;;;;;1.61;100.00;100954.53;4980741;28;20027;-92
2022/01/07 06:40:01;;;;;;;18.80;11.32;;;;;;;1.61;100.00;100945.78;4992580;28;20121;-92
2022/01/07 06:42:27;;;;;;;14.80;11.35;;;;;;;1.65;100.00;100942.25;4983737;28;20389;-92
2022/01/07 06:44:52;;;;;;;19.42;11.90;;;;;;;1.64;100.00;100949.25;4975278;28;20037;-91
2022/01/07 06:47:17;;;;;;;21.27;12.38;;;;;;;1.65;100.00;100948.34;4974861;28;20066;-89
2022/01/07 06:49:42;;;;;;;21.83;12.02;;;;;;;1.60;100.00;100939.69;4976070;28;20063;-90
2022/01/07 06:52:08;;;;;;;21.00;11.68;;;;;;;1.68;100.00;100952.69;4976483;28;20076;-92
2022/01/07 06:54:34;;;;;;;16.83;12.23;;;;;;;1.69;100.00;100951.81;4972141;28;20046;-92
2022/01/07 06:56:59;;;;;;;18.77;12.18;;;;;;;1.70;100.00;100950.91;4972528;28;20070;-91
2022/01/07 06:59:24;;;;;;;19.98;12.15;;;;;;;1.70;100.00;100958.78;4990727;28;20423;-91
2022/01/07 07:01:50;;;;;;;19.77;12.57;;;;;;;1.68;100.00;100947.47;4987214;28;20037;-92
2022/01/07 07:04:16;;;;;;;20.25;12.15;;;;;;;1.68;100.00;100942.22;4985382;28;20034;-92
2022/01/07 07:06:41;;;;;;;20.08;12.27;;;;;;;1.74;100.00;100952.63;4974793;28;20037;-92
2022/01/07 07:09:07;;;;;;;23.95;12.30;;;;;;;1.74;100.00;100945.59;4960864;28;20026;-92
2022/01/07 07:11:33;;;;;;;21.83;12.77;;;;;;;1.77;100.00;100951.72;4987831;28;20468;-92
2022/01/07 07:13:58;;;;;;;21.13;12.77;;;;;;;1.75;100.00;100939.47;4982432;28;20041;-91
2022/01/07 07:16:23;;;;;;;17.77;12.18;;;;;;;1.85;100.00;100955.97;4982208;28;20026;-93
2022/01/07 07:18:49;;;;;;;20.00;12.05;;;;;;;1.85;100.00;100950.72;4984318;28;20038;-93
2022/01/07 07:21:15;;;;;;;15.88;12.32;;;;;;;1.86;100.00;100951.59;4991446;28;20027;-93
2022/01/07 07:23:40;;;;;;;20.67;12.25;;;;;;;1.87;100.00;100956.81;4993100;28;20041;-92
2022/01/07 07:26:06;;;;;;;17.52;11.68;;;;;;;1.88;100.00;100949.78;4979284;28;20027;-92
2022/01/07 07:28:33;;;;;;;20.27;12.75;;;;;;;1.81;100.00;100941.16;4989904;28;20026;-91
2022/01/07 07:31:00;;;;;;;20.73;13.05;;;;;;;1.91;100.00;100949.75;4989916;28;20037;-91
2022/01/07 07:38:44;;;;;;;20.77;12.48;;;;;;;1.96;100.00;100938.31;4979353;28;20092;-91
2022/01/07 07:41:10;;;;;;;16.60;11.80;;;;;;;1.97;100.00;100945.31;4981696;28;20030;-87
2022/01/07 07:43:37;;;;;;;19.77;12.63;;;;;;;1.99;100.00;100947.91;4983225;28;20025;-87
2022/01/07 07:46:03;;;;;;;20.75;13.02;;;;;;;2.06;100.00;100959.19;4976656;28;20117;-86
2022/01/07 07:48:30;;;;;;;20.10;12.60;;;;;;;2.08;100.00;100954.78;4986143;28;20053;-86
2022/01/07 07:50:55;;;;;;;19.40;13.30;;;;;;;2.04;100.00;100950.47;4988740;28;20026;-88
2022/01/07 07:53:21;;;;;;;22.15;12.63;;;;;;;2.05;100.00;100946.94;4980242;28;20089;-88
2022/01/07 07:55:52;;;;;;;21.08;12.82;;;;;;;2.05;100.00;100929.47;4968274;28;20026;-88
2022/01/07 07:58:17;;;;;;;18.77;11.88;;;;;;;2.10;100.00;100939.88;4972152;28;20042;-88
2022/01/07 08:00:43;;;;;;;21.88;13.27;;;;;;;2.08;100.00;100936.41;4985911;28;20032;-88
2022/01/07 08:03:08;;;;;;;21.27;13.82;;;;;;;2.14;100.00;100941.59;4981558;28;20315;-88
2022/01/07 08:05:33;;;;;;;24.50;13.25;;;;;;;2.14;100.00;100942.44;4976305;28;20026;-88
2022/01/07 08:08:02;;;;;;;20.92;13.43;;;;;;;2.17;100.00;100945.03;4968779;28;20046;-87
2022/01/07 08:10:27;;;;;;;17.63;12.57;;;;;;;2.17;100.00;100946.75;4984053;28;20480;-88
2022/01/07 08:15:58;;;;;;;27.70;12.93;;;;;;;2.15;100.00;100935.44;4947309;28;20127;-87
2022/01/07 08:18:24;;;;;;;20.27;12.75;;;;;;;2.21;100.00;100936.19;4989121;28;20034;-87
2022/01/07 08:20:51;;;;;;;18.17;12.05;;;;;;;2.27;100.00;100945.75;4988354;28;20423;-87
2022/01/07 08:23:18;;;;;;;20.65;12.00;;;;;;;2.31;100.00;100942.19;4987606;28;20417;-87
2022/01/07 08:25:44;;;;;;;22.02;12.65;;;;;;;2.33;100.00;100937.75;4977580;28;20046;-87
2022/01/07 08:28:10;;;;;;;19.90;12.68;;;;;;;2.32;100.00;100936.03;4969069;28;20019;-92
2022/01/07 08:30:37;;;;;;;20.35;12.55;;;;;;;2.30;100.00;100940.47;4969032;28;20084;-85
2022/01/07 08:35:48;;;;;;;20.58;12.20;;;;;;;2.32;100.00;100941.28;4968611;28;20496;-82
2022/01/07 08:38:13;;;;;;;17.48;11.43;;;;;;;2.31;100.00;100921.19;4972678;28;20034;-84
2022/01/07 08:40:38;;;;;;;22.45;12.18;;;;;;;2.38;100.00;100928.06;4957749;28;20058;-89
2022/01/07 08:43:04;;;;;;;20.00;12.40;;;;;;;2.39;100.00;100931.56;4970429;28;20111;-87
2022/01/07 08:45:29;;;;;;;15.13;11.65;;;;;;;2.42;100.00;100919.22;4982573;28;20480;-87
2022/01/07 08:47:55;;;;;;;22.27;13.10;;;;;;;2.44;100.00;100917.47;4976715;28;20038;-96
2022/01/07 08:50:20;;;;;;;20.08;11.63;;;;;;;2.46;100.00;100912.16;4994620;28;20354;-87
2022/01/07 08:52:46;;;;;;;18.40;12.27;;;;;;;2.54;100.00;100927.81;4989681;28;20392;-88
2022/01/07 08:55:12;;;;;;;23.00;13.00;;;;;;;2.57;100.00;100933.03;4986394;28;20496;-87
2022/01/07 08:57:37;;;;;;;20.13;12.35;;;;;;;2.58;100.00;100930.34;4976628;28;20045;-86
2022/01/07 09:00:04;;;;;;;19.70;12.10;;;;;;;2.66;100.00;100940.75;4986667;28;20055;-87
2022/01/07 09:02:30;;;;;;;19.58;11.95;;;;;;;2.62;100.00;100944.31;4972322;28;20093;-86
2022/01/07 09:04:56;;;;;;;17.38;11.45;;;;;;;2.67;100.00;100950.34;4973026;28;20105;-85
2022/01/07 09:07:21;;;;;;;20.23;12.23;;;;;;;2.69;100.00;100957.34;4972539;28;20856;-87
2022/01/07 09:09:46;;;;;;;19.45;11.90;;;;;;;2.72;100.00;100959.91;4975948;28;20019;-87
2022/01/07 09:12:12;;;;;;;16.27;11.98;;;;;;;2.74;100.00;100941.47;4971843;28;20459;-85
2022/01/07 09:14:37;;;;;;;17.65;12.27;;;;;;;2.69;100.00;100928.44;4958671;28;20023;-87
2022/01/07 09:17:03;;;;;;;19.98;11.38;;;;;;;2.76;100.00;100934.47;4973502;28;20040;-88
2022/01/07 09:19:28;;;;;;;16.48;11.85;;;;;;;2.71;100.00;100938.91;4977528;28;20022;-86
2022/01/07 09:21:56;;;;;;;18.67;11.70;;;;;;;2.74;100.00;100939.72;4974317;28;20039;-85
2022/01/07 09:24:22;;;;;;;19.73;12.55;;;;;;;2.77;100.00;100940.56;4981559;28;20841;-86
2022/01/07 09:26:48;;;;;;;15.77;10.95;;;;;;;2.75;100.00;100940.59;4973358;28;20035;-87
2022/01/07 09:29:13;;;;;;;18.88;10.63;;;;;;;2.71;100.00;100939.75;4988428;28;20065;-86
2022/01/07 09:31:38;;;;;;;23.60;11.55;;;;;;;2.76;100.00;100942.34;4990089;28;20487;-86
2022/01/07 09:34:04;;;;;;;18.17;11.27;;;;;;;2.78;100.00;100944.94;4978680;28;20030;-87
2022/01/07 09:36:29;;;;;;;17.05;10.75;;;;;;;2.82;100.00;100944.00;4981805;28;20054;-85
2022/01/07 09:38:54;;;;;;;18.35;10.45;;;;;;;2.77;100.00;100936.19;4985936;28;20510;-85
2022/01/07 09:41:19;;;;;;;13.32;9.35;;;;;;;2.88;100.00;100942.09;4986639;28;20106;-85
2022/01/07 09:43:45;;;;;;;15.40;10.38;;;;;;;2.94;100.00;100928.88;4981669;28;20396;-86
2022/01/07 09:46:14;;;;;;;15.50;11.18;;;;;;;2.92;100.00;100924.50;4973874;28;20031;-86
2022/01/07 09:48:41;;;;;;;14.55;9.48;;;;;;;3.07;100.00;100931.28;4980079;28;20058;-86
2022/01/07 09:51:07;;;;;;;16.85;10.18;;;;;;;3.13;100.00;100931.13;4971964;28;20037;-86
2022/01/07 09:53:32;;;;;;;14.75;10.50;;;;;;;3.26;100.00;100935.28;4972850;28;20034;-87
2022/01/07 09:55:57;;;;;;;16.80;10.07;;;;;;;3.29;99.87;100932.59;4984275;28;20357;-86
2022/01/07 09:58:22;;;;;;;18.42;10.10;;;;;;;3.34;99.32;100943.88;4972619;28;20035;-87
2022/01/07 10:00:48;;;;;;;13.27;9.50;;;;;;;3.30;99.47;100934.31;4987484;28;20018;-87
2022/01/07 10:03:15;;;;;;;14.57;9.77;;;;;;;3.42;98.97;100933.22;4984435;28;20442;-87
2022/01/07 10:05:44;;;;;;;11.90;8.43;;;;;;;3.48;98.08;100933.97;4971347;28;20034;-86
2022/01/07 10:08:28;;;;;;;14.13;9.50;;;;;;;3.60;98.37;100927.59;4984522;28;20399;-86
2022/01/07 10:11:23;;;;;;;13.35;9.32;;;;;;;3.77;97.57;100926.38;4987172;28;20037;-86
2022/01/07 10:14:09;;;;;;;12.57;8.88;;;;;;;3.73;97.42;100912.41;4948610;28;20485;-86
2022/01/07 10:16:47;;;;;;;14.55;8.45;;;;;;;3.81;96.87;100920.13;4976525;28;20042;-85
2022/01/07 10:19:29;;;;;;;14.68;8.68;;;;;;;3.92;96.42;100915.47;4980267;28;20034;-85
2022/01/07 10:21:56;;;;;;;8.60;7.50;;;;;;;3.91;95.70;100926.91;4985702;28;20049;-85
2022/01/07 10:24:22;;;;;;;13.27;7.55;;;;;;;3.90;95.92;100931.31;4971465;28;20037;-86
2022/01/07 10:27:08;;;;;;;10.70;7.72;;;;;;;3.93;96.22;100925.09;4972666;28;20034;-86
2022/01/07 10:29:38;;;;;;;12.13;7.88;;;;;;;3.96;95.88;100925.91;4960630;28;20721;-85
2022/01/07 10:32:24;;;;;;;11.90;7.85;;;;;;;4.12;95.65;100904.50;4974790;28;20036;-86
2022/01/07 10:35:18;;;;;;;9.90;7.03;;;;;;;4.15;94.47;100905.28;4952544;28;20027;-85
2022/01/07 10:37:49;;;;;;;;;;;;;;;4.14;95.12;100894.78;4981746;28;20430;-85
2022/01/07 10:40:21;;;;;;;10.65;7.18;;;;;;;4.09;94.33;100901.94;4971653;28;19968;-84
2022/01/07 10:42:46;;;;;;;12.80;7.78;;;;;;;3.99;94.92;100883.72;4975359;28;20110;-85
2022/01/07 10:45:11;;;;;;;11.43;7.47;;;;;;;3.97;94.45;100896.06;4972512;28;20131;-85
2022/01/07 10:47:37;;;;;;;9.68;7.28;;;;;;;3.95;95.39;100904.88;4970934;28;20031;-85
2022/01/07 10:50:18;;;;;;;12.00;7.93;;;;;;;4.05;95.80;100905.53;4972625;28;20093;-86
2022/01/07 10:52:44;;;;;;;12.50;7.35;;;;;;;3.95;94.76;100879.41;4976682;28;20039;-84
2022/01/07 10:55:11;;;;;;;9.20;7.00;;;;;;;3.88;95.13;100880.44;4982049;28;20038;-86
2022/01/07 10:57:43;;;;;;;12.15;7.63;;;;;;;3.99;95.34;100878.44;4969807;28;20114;-86
2022/01/07 11:00:20;;;;;;;11.98;7.28;;;;;;;4.06;94.88;100880.94;4974008;28;20147;-86
2022/01/07 11:02:46;;;;;;;14.32;7.65;;;;;;;4.28;95.21;100889.19;4985751;28;20506;-87
2022/01/07 11:05:12;;;;;;;10.73;8.02;;;;;;;4.42;94.69;100884.44;4984022;28;20081;-85
2022/01/07 11:07:38;;;;;;;11.00;7.55;;;;;;;4.37;94.20;100889.84;4976392;28;20023;-84
2022/01/07 11:10:04;;;;;;;13.95;8.52;;;;;;;4.27;94.02;100882.22;4968832;28;20042;-88
2022/01/07 11:12:30;;;;;;;11.55;7.70;;;;;;;4.16;94.25;100869.28;4971081;28;20081;-89
2022/01/07 11:14:57;;;;;;;11.68;7.20;;;;;;;4.18;94.52;100876.25;4973536;28;20030;-86
2022/01/07 11:17:23;;;;;;;13.98;6.88;;;;;;;4.14;94.12;100871.06;4975215;28;20054;-85
2022/01/07 11:19:52;;;;;;;11.23;7.13;;;;;;;4.15;94.21;100867.56;4970103;28;20038;-88
2022/01/07 11:22:19;;;;;;;13.15;7.25;;;;;;;4.22;93.60;100885.81;4970870;28;20030;-87
2022/01/07 11:24:50;;;;;;;11.50;6.53;;;;;;;4.18;93.55;100884.16;4977838;28;20051;-89
2022/01/07 11:27:20;;;;;;;9.02;6.80;;;;;;;4.14;94.13;100886.88;4982391;28;20033;-87